createdAt,value
2022-12-16T05:36:17.463Z,0.88
2022-12-16T05:41:20.151Z,0.75
2022-12-16T05:46:25.354Z,0.82
2022-12-16T05:51:27.948Z,1.30
2022-12-16T05:56:30.233Z,2.25
2022-12-16T06:01:38.637Z,1.90
2022-12-16T06:06:41.904Z,2.50
2022-12-16T06:11:45.368Z,2.28
2022-12-16T06:16:53.562Z,2.15
2022-12-16T06:21:55.844Z,1.85
2022-12-16T06:26:58.071Z,1.90
2022-12-16T06:32:03.648Z,2.00
2022-12-16T06:37:05.952Z,2.40
2022-12-16T06:42:08.225Z,1.88
2022-12-16T06:47:13.153Z,2.30
2022-12-16T06:52:16.421Z,2.42
2022-12-16T06:57:19.151Z,2.40
2022-12-16T07:02:26.039Z,2.50
2022-12-16T07:07:28.399Z,2.90
2022-12-16T07:12:31.073Z,3.00
2022-12-16T07:17:36.383Z,3.07
2022-12-16T07:22:39.263Z,2.58
2022-12-16T07:27:41.547Z,2.90
2022-12-16T07:32:47.275Z,2.87
2022-12-16T07:37:53.364Z,2.83
2022-12-16T07:42:56.855Z,3.00
2022-12-16T07:48:05.999Z,3.15
2022-12-16T07:53:11.511Z,3.88
2022-12-16T07:58:13.928Z,3.47
2022-12-16T08:03:19.014Z,4.38
2022-12-16T08:08:21.393Z,4.70
2022-12-16T08:13:25.797Z,4.77
2022-12-16T08:18:31.209Z,4.43
2022-12-16T08:23:34.913Z,4.47
2022-12-16T08:28:37.850Z,5.07
2022-12-16T08:33:43.631Z,4.82
2022-12-16T08:38:46.467Z,5.10
2022-12-16T08:43:50.246Z,4.57
2022-12-16T08:48:57.487Z,3.95
2022-12-16T08:54:01.459Z,3.50
2022-12-16T08:59:06.865Z,3.63
2022-12-16T09:04:13.126Z,4.03
2022-12-16T09:09:15.881Z,3.88
2022-12-16T09:14:20.427Z,3.08
2022-12-16T09:19:28.135Z,3.58
2022-12-16T09:24:31.725Z,3.60
2022-12-16T09:29:34.991Z,3.47
2022-12-16T09:34:40.145Z,3.07
2022-12-16T09:39:42.486Z,3.22
2022-12-16T09:45:02.812Z,3.53
2022-12-16T09:50:10.217Z,3.13
2022-12-16T09:55:13.638Z,3.30
2022-12-16T10:00:19.649Z,2.97
2022-12-16T10:05:30.234Z,2.60
2022-12-16T10:10:41.224Z,3.20
2022-12-16T10:15:52.376Z,3.53
2022-12-16T10:21:02.584Z,4.85
2022-12-16T10:26:11.229Z,3.53
2022-12-16T10:31:14.424Z,3.13
2022-12-16T10:36:27.509Z,3.85
2022-12-16T10:41:30.907Z,3.30
2022-12-16T10:46:37.910Z,3.33
2022-12-16T10:51:44.468Z,3.15
2022-12-16T10:57:07.248Z,3.80
2022-12-16T11:02:16.432Z,3.63
2022-12-16T11:07:37.401Z,3.65
2022-12-16T11:12:42.710Z,3.20
2022-12-16T11:17:45.496Z,2.90
2022-12-16T11:22:50.550Z,3.35
2022-12-16T11:27:53.346Z,1.77
2022-12-16T11:32:59.811Z,1.13
2022-12-16T11:38:08.304Z,1.00
2022-12-16T11:43:16.945Z,1.20
2022-12-16T11:48:27.875Z,1.40
2022-12-16T11:53:48.030Z,1.30
2022-12-16T11:58:57.698Z,1.42
2022-12-16T12:04:04.080Z,1.20
2022-12-16T12:09:21.558Z,1.10
2022-12-16T12:14:34.434Z,1.38
2022-12-16T12:19:47.686Z,1.50
2022-12-16T12:25:01.731Z,1.60
2022-12-16T12:30:16.905Z,1.33
2022-12-16T12:35:33.806Z,1.13
2022-12-16T12:40:56.427Z,1.20
2022-12-16T12:46:14.129Z,1.80
2022-12-16T12:51:25.237Z,1.40
2022-12-16T12:56:43.949Z,1.38
2022-12-16T13:01:50.545Z,1.10
2022-12-16T13:06:54.438Z,1.10
2022-12-16T13:12:30.661Z,1.53
2022-12-16T13:17:36.612Z,1.35
2022-12-16T13:22:47.442Z,1.27
2022-12-16T13:28:08.211Z,1.38
2022-12-16T13:33:30.615Z,1.45
2022-12-16T13:38:36.654Z,1.23
2022-12-16T13:43:59.600Z,1.25
2022-12-16T13:49:05.441Z,1.73
2022-12-16T13:54:09.722Z,1.80
2022-12-16T13:59:19.272Z,1.48
2022-12-16T14:04:41.630Z,1.47
2022-12-16T14:09:50.982Z,1.15
2022-12-16T14:14:59.746Z,1.52
2022-12-16T14:20:12.455Z,1.70
2022-12-16T14:25:24.694Z,1.58
2022-12-16T14:30:34.230Z,1.88
2022-12-16T14:35:49.419Z,1.70
2022-12-16T14:40:51.991Z,1.80
2022-12-16T14:45:55.185Z,1.90
2022-12-16T14:51:00.363Z,2.53
2022-12-16T14:56:03.073Z,1.70
2022-12-16T15:01:13.816Z,2.00
2022-12-16T15:06:23.530Z,2.45
2022-12-16T15:11:29.473Z,1.67
2022-12-16T15:16:36.447Z,2.00
2022-12-16T15:21:42.618Z,2.15
2022-12-16T15:26:47.491Z,2.27
2022-12-16T15:31:51.708Z,2.67
2022-12-16T15:37:03.402Z,3.65
2022-12-16T15:42:06.990Z,2.93
2022-12-16T15:47:10.270Z,4.07
2022-12-16T15:52:18.408Z,4.50
2022-12-16T15:57:45.432Z,5.15
2022-12-16T16:02:53.758Z,4.73
2022-12-16T16:08:03.502Z,7.10
2022-12-16T16:13:11.124Z,6.83
2022-12-16T16:18:16.373Z,7.07
2022-12-16T16:23:22.892Z,7.10
2022-12-16T16:28:26.049Z,5.40
2022-12-16T16:58:49.575Z,7.63
2022-12-16T17:03:51.994Z,8.32
2022-12-16T17:08:57.707Z,8.75
2022-12-16T17:14:01.533Z,8.35
2022-12-16T17:19:03.808Z,6.80
2022-12-16T17:24:10.690Z,6.87
2022-12-16T17:29:13.747Z,6.00
2022-12-16T17:34:24.351Z,7.15
2022-12-16T17:39:30.386Z,6.75
2022-12-16T17:44:33.899Z,6.35
2022-12-16T17:49:44.990Z,7.45
2022-12-16T17:54:54.966Z,7.18
2022-12-16T17:59:59.665Z,8.75
2022-12-16T18:05:03.412Z,9.27
2022-12-16T18:10:09.422Z,8.35
2022-12-16T18:15:12.019Z,8.25
2022-12-16T18:20:14.270Z,7.75
2022-12-16T18:25:33.371Z,8.07
2022-12-16T18:30:37.056Z,9.10
2022-12-16T18:35:39.854Z,8.38
2022-12-16T18:40:45.632Z,9.60
2022-12-16T18:45:49.641Z,9.75
2022-12-16T18:50:52.034Z,10.85
2022-12-16T18:56:02.165Z,10.30
2022-12-16T19:01:04.610Z,10.15
2022-12-16T19:06:12.309Z,8.55
2022-12-16T19:11:17.278Z,10.85
2022-12-16T19:16:20.215Z,12.23
2022-12-16T19:21:22.702Z,11.73
2022-12-16T19:26:32.173Z,12.60
2022-12-16T19:31:42.773Z,12.65
2022-12-16T19:36:55.297Z,11.80
2022-12-16T19:42:02.344Z,12.32
2022-12-16T19:47:05.504Z,13.30
2022-12-16T19:52:09.445Z,12.07
2022-12-16T19:57:18.290Z,12.73
2022-12-16T20:02:22.120Z,13.00
2022-12-16T20:07:25.014Z,13.98
2022-12-16T20:12:32.032Z,13.23
2022-12-16T20:17:40.479Z,13.68
2022-12-16T20:22:51.970Z,13.00
2022-12-16T20:27:58.473Z,13.75
2022-12-16T20:33:16.017Z,13.82
2022-12-16T20:38:19.433Z,13.35
2022-12-16T20:43:35.906Z,13.82
2022-12-16T20:48:41.307Z,20.08
2022-12-16T20:53:48.144Z,22.23
2022-12-16T20:58:57.369Z,27.55
2022-12-16T21:04:03.708Z,27.20
2022-12-16T21:09:07.391Z,28.42
2022-12-16T21:14:20.724Z,27.73
2022-12-16T21:19:29.422Z,26.73
2022-12-16T21:24:38.796Z,26.08
2022-12-16T21:29:47.302Z,25.75
2022-12-16T21:34:53.092Z,25.60
2022-12-16T21:39:58.839Z,25.70
2022-12-16T21:45:04.748Z,27.50
2022-12-16T21:50:08.615Z,27.85
2022-12-16T21:55:13.208Z,28.20
2022-12-16T22:00:22.919Z,29.85
2022-12-16T22:05:26.875Z,28.15
2022-12-16T22:10:30.149Z,33.00
2022-12-16T22:15:37.389Z,30.48
2022-12-16T22:20:43.487Z,31.42
2022-12-16T22:25:46.758Z,30.10
2022-12-16T22:30:52.617Z,32.45
2022-12-16T22:35:59.668Z,28.30
2022-12-16T22:41:10.454Z,31.48
2022-12-16T22:46:18.089Z,29.50
2022-12-16T22:51:27.223Z,28.08
2022-12-16T22:56:31.464Z,26.95
2022-12-16T23:01:37.970Z,24.98
2022-12-16T23:06:42.636Z,22.90
2022-12-16T23:11:50.183Z,22.88
2022-12-16T23:16:58.879Z,21.63
2022-12-16T23:22:05.686Z,17.63
2022-12-16T23:27:08.895Z,15.85
2022-12-16T23:32:15.515Z,14.77
2022-12-16T23:37:21.294Z,13.20
2022-12-16T23:42:24.620Z,12.70
2022-12-16T23:47:30.738Z,11.60
2022-12-16T23:52:33.934Z,13.32
